Time;durP1;ratioP1;P1;durP2;ratioP2;P2;SDS_P1;SDS_P2;PMS_P1;PMS_P2;Temp;Humidity;BMP_temperature;BMP_pressure;BME280_temperature;BME280_humidity;BME280_pressure;Samples;Min_cycle;Max_cycle;Signal;HPM_P1;HPM_P2
2023/10/18 00:01:49;;;;;;;6.07;5.47;;;;;;;1.73;100.00;99473.03;6080336;23;20252;-82
2023/10/18 00:04:19;;;;;;;6.77;5.87;;;;;;;1.69;100.00;99466.44;6049971;23;20227;-83
2023/10/18 00:06:49;;;;;;;5.97;5.33;;;;;;;1.66;100.00;99472.06;6050248;23;20183;-81
2023/10/18 00:12:07;;;;;;;8.37;5.80;;;;;;;1.60;100.00;99471.91;6053342;23;20175;-81
2023/10/18 00:14:40;;;;;;;6.37;5.70;;;;;;;1.54;100.00;99470.72;6027395;23;20192;-83
2023/10/18 00:17:13;;;;;;;9.00;6.40;;;;;;;1.47;100.00;99468.94;6050250;23;20172;-81
2023/10/18 00:19:41;;;;;;;9.17;6.37;;;;;;;1.42;100.00;99473.88;6050297;23;20187;-83
2023/10/18 00:22:12;;;;;;;7.47;5.83;;;;;;;1.36;100.00;99472.72;6027462;23;20172;-81
2023/10/18 00:24:41;;;;;;;7.53;6.17;;;;;;;1.31;100.00;99473.22;6026130;23;20168;-82
2023/10/18 00:27:13;;;;;;;6.87;6.03;;;;;;;1.28;100.00;99472.72;6026225;23;20187;-81
2023/10/18 00:29:43;;;;;;;6.43;5.83;;;;;;;1.24;100.00;99476.69;6049599;23;20168;-83
2023/10/18 00:32:11;;;;;;;6.57;5.97;;;;;;;1.15;100.00;99478.50;6051054;23;20176;-82
2023/10/18 00:34:43;;;;;;;6.90;6.20;;;;;;;1.13;100.00;99474.34;6049594;23;20180;-81
2023/10/18 00:37:11;;;;;;;7.20;6.37;;;;;;;1.08;100.00;99472.19;6049940;23;20176;-84
2023/10/18 00:39:39;;;;;;;7.17;5.87;;;;;;;1.08;100.00;99474.84;6025898;23;20235;-82
2023/10/18 00:45:08;;;;;;;7.10;6.40;;;;;;;0.99;100.00;99470.53;6052762;23;20199;-83
2023/10/18 00:47:37;;;;;;;8.23;6.33;;;;;;;0.97;100.00;99466.44;6049520;23;20168;-81
2023/10/18 00:50:06;;;;;;;7.83;6.63;;;;;;;0.92;100.00;99471.38;6049601;23;20173;-81
2023/10/18 00:52:37;;;;;;;9.70;6.67;;;;;;;0.86;100.00;99468.38;6050150;23;20248;-81
2023/10/18 00:55:14;;;;;;;7.83;6.60;;;;;;;0.85;100.00;99457.97;6049917;23;20172;-83
2023/10/18 00:57:47;;;;;;;7.67;6.53;;;;;;;0.81;100.00;99451.38;6028067;23;20172;-82
2023/10/18 01:00:24;;;;;;;7.37;6.13;;;;;;;0.83;100.00;99449.44;6026036;23;20200;-82
2023/10/18 01:02:59;;;;;;;8.63;6.60;;;;;;;0.79;100.00;99448.91;6071007;23;20191;-82
2023/10/18 01:05:31;;;;;;;9.23;6.60;;;;;;;0.78;100.00;99438.53;6080568;23;20178;-81
2023/10/18 01:07:59;;;;;;;8.37;6.57;;;;;;;0.73;100.00;99420.56;6101684;23;20175;-84
2023/10/18 01:10:30;;;;;;;7.07;6.27;;;;;;;0.71;100.00;99417.25;6101967;23;20226;-82
2023/10/18 01:13:01;;;;;;;6.37;5.73;;;;;;;0.73;100.00;99422.38;6078672;23;20172;-82
2023/10/18 01:15:29;;;;;;;8.57;6.53;;;;;;;0.72;100.00;99418.91;6078838;23;20219;-82
2023/10/18 01:17:57;;;;;;;9.47;6.17;;;;;;;0.70;100.00;99420.06;6101676;23;20210;-83
2023/10/18 01:20:33;;;;;;;7.60;6.80;;;;;;;0.68;100.00;99419.38;6078413;23;20227;-81
2023/10/18 01:23:03;;;;;;;9.47;6.67;;;;;;;0.69;100.00;99426.31;6080329;23;20170;-81
2023/10/18 01:25:35;;;;;;;7.37;6.13;;;;;;;0.65;100.00;99423.19;6102533;23;20171;-82
2023/10/18 01:28:05;;;;;;;7.40;6.57;;;;;;;0.61;100.00;99427.09;6078596;23;20202;-82
2023/10/18 01:30:39;;;;;;;7.17;6.47;;;;;;;0.57;100.00;99425.78;6102967;23;20224;-82
2023/10/18 01:33:10;;;;;;;6.80;6.10;;;;;;;0.54;100.00;99428.75;6101705;23;20258;-82
2023/10/18 01:35:46;;;;;;;7.70;6.43;;;;;;;0.53;100.00;99428.91;6079467;23;20218;-84
2023/10/18 01:38:25;;;;;;;7.70;6.23;;;;;;;0.48;100.00;99432.00;6083141;23;20250;-82
2023/10/18 01:40:57;;;;;;;7.53;6.53;;;;;;;0.39;100.00;99425.91;6083176;23;20191;-82
2023/10/18 01:43:31;;;;;;;9.53;6.57;;;;;;;0.40;100.00;99429.34;6083810;23;20170;-81
2023/10/18 01:46:06;;;;;;;7.47;6.30;;;;;;;0.39;100.00;99420.63;6105979;23;20194;-82
2023/10/18 01:48:38;;;;;;;9.23;6.33;;;;;;;0.41;100.00;99420.47;6106292;23;20162;-82
2023/10/18 01:51:12;;;;;;;7.33;6.20;;;;;;;0.35;100.00;99416.66;6106561;23;20222;-82
2023/10/18 01:53:43;;;;;;;7.10;6.30;;;;;;;0.36;100.00;99420.13;6081921;23;20564;-81
2023/10/18 01:56:17;;;;;;;7.10;6.40;;;;;;;0.34;100.00;99414.19;6081306;23;20172;-84
2023/10/18 01:58:48;;;;;;;7.37;6.43;;;;;;;0.34;100.00;99415.00;6105681;23;20163;-82
2023/10/18 02:01:17;;;;;;;8.47;6.80;;;;;;;0.34;100.00;99420.28;6081451;23;20266;-82
2023/10/18 02:03:50;;;;;;;7.37;6.40;;;;;;;0.30;100.00;99418.13;6081898;23;20537;-82
2023/10/18 02:06:20;;;;;;;7.77;6.33;;;;;;;0.29;100.00;99413.81;6105493;23;20170;-82
2023/10/18 02:08:49;;;;;;;9.50;6.73;;;;;;;0.26;100.00;99420.25;6081662;23;20242;-82
2023/10/18 02:11:20;;;;;;;7.47;6.33;;;;;;;0.23;100.00;99406.59;6128991;23;20174;-85
2023/10/18 02:13:48;;;;;;;8.03;6.63;;;;;;;0.22;100.00;99415.47;6104903;23;20254;-82
2023/10/18 02:16:20;;;;;;;8.10;6.70;;;;;;;0.18;100.00;99406.22;6082275;23;20606;-82
2023/10/18 02:18:49;;;;;;;7.57;6.73;;;;;;;0.14;100.00;99410.16;6081266;23;20168;-82
2023/10/18 02:21:21;;;;;;;8.53;6.93;;;;;;;0.10;100.00;99407.00;6081625;23;20664;-82
2023/10/18 02:23:51;;;;;;;10.67;7.27;;;;;;;0.05;100.00;99414.53;6082084;23;20174;-82
2023/10/18 02:26:31;;;;;;;9.33;7.50;;;;;;;0.02;100.00;99408.78;6105734;23;20576;-82
2023/10/18 02:29:11;;;;;;;8.27;6.87;;;;;;;0.03;100.00;99413.91;6129235;23;20167;-82
2023/10/18 02:31:45;;;;;;;7.43;6.63;;;;;;;-0.01;100.00;99400.22;6106921;23;20164;-84
2023/10/18 02:34:18;;;;;;;8.30;7.30;;;;;;;0.00;100.00;99412.38;6082549;23;20174;-84
2023/10/18 02:36:58;;;;;;;8.80;6.87;;;;;;;-0.04;100.00;99410.22;6106739;23;20203;-83
2023/10/18 02:39:30;;;;;;;8.00;7.17;;;;;;;-0.08;100.00;99411.53;6081103;23;20653;-82
2023/10/18 02:42:00;;;;;;;8.27;7.27;;;;;;;-0.12;100.00;99405.75;6128980;23;20191;-82
2023/10/18 02:44:29;;;;;;;9.57;7.93;;;;;;;-0.13;100.00;99406.72;6104920;23;20164;-82
2023/10/18 02:47:10;;;;;;;9.33;7.40;;;;;;;-0.15;100.00;99403.44;6129869;23;20164;-82
2023/10/18 02:49:45;;;;;;;9.93;7.40;;;;;;;-0.16;100.00;99414.97;6081701;23;20163;-82
2023/10/18 02:52:15;;;;;;;8.13;7.27;;;;;;;-0.17;100.00;99426.47;6104668;23;20170;-82
2023/10/18 02:54:48;;;;;;;9.90;7.30;;;;;;;-0.18;100.00;99409.00;6104195;23;20163;-83
2023/10/18 02:57:18;;;;;;;9.17;7.47;;;;;;;-0.21;100.00;99409.34;6080606;23;20238;-82
2023/10/18 02:59:51;;;;;;;9.23;7.20;;;;;;;-0.20;100.00;99407.53;6104194;23;20168;-82
2023/10/18 03:02:24;;;;;;;7.90;7.10;;;;;;;-0.22;100.00;99410.31;6103086;23;20493;-82
2023/10/18 03:04:56;;;;;;;9.87;7.70;;;;;;;-0.23;100.00;99410.44;6080031;23;20164;-83
2023/10/18 03:07:27;;;;;;;7.90;7.10;;;;;;;-0.27;100.00;99415.22;6104039;23;20219;-83
2023/10/18 03:10:11;;;;;;;7.90;7.10;;;;;;;-0.33;100.00;99407.97;6080900;23;20172;-83
2023/10/18 03:12:44;;;;;;;8.00;7.03;;;;;;;-0.36;100.00;99410.88;6082322;23;20682;-82
2023/10/18 03:15:21;;;;;;;9.13;7.17;;;;;;;-0.38;100.00;99412.84;6080175;23;20187;-82
2023/10/18 03:17:49;;;;;;;8.57;7.37;;;;;;;-0.40;100.00;99414.81;6102728;23;20242;-82
2023/10/18 03:20:23;;;;;;;10.17;7.23;;;;;;;-0.44;100.00;99410.84;6079553;23;20497;-82
2023/10/18 03:23:02;;;;;;;8.83;7.57;;;;;;;-0.52;100.00;99406.34;6080524;23;20179;-82
2023/10/18 03:25:31;;;;;;;9.47;7.40;;;;;;;-0.55;100.00;99404.00;6079715;23;20194;-82
2023/10/18 03:28:13;;;;;;;8.93;7.53;;;;;;;-0.56;100.00;99399.72;6103967;23;20160;-82
2023/10/18 03:30:46;;;;;;;9.60;7.93;;;;;;;-0.52;100.00;99395.84;6082054;23;20179;-83
2023/10/18 03:33:19;;;;;;;8.10;7.13;;;;;;;-0.51;100.00;99399.25;6103292;23;20690;-83
2023/10/18 03:36:06;;;;;;;8.10;7.30;;;;;;;-0.55;100.00;99398.75;6079898;23;20164;-82
2023/10/18 03:39:00;;;;;;;8.83;7.20;;;;;;;-0.56;100.00;99396.28;6106740;23;20619;-83
2023/10/18 03:41:40;;;;;;;8.43;7.30;;;;;;;-0.57;100.00;99387.56;6105529;23;20180;-83
2023/10/18 03:44:08;;;;;;;7.97;6.77;;;;;;;-0.58;100.00;99385.91;6080744;23;20176;-83
2023/10/18 03:46:48;;;;;;;7.67;6.87;;;;;;;-0.60;100.00;99379.13;6078805;23;20178;-82
2023/10/18 03:51:56;;;;;;;9.30;7.30;;;;;;;-0.65;100.00;99370.88;6103887;23;20190;-85
2023/10/18 03:54:28;;;;;;;7.63;6.83;;;;;;;-0.65;100.00;99368.25;6102692;23;20176;-81
2023/10/18 03:56:57;;;;;;;8.23;6.53;;;;;;;-0.69;100.00;99370.38;6126441;23;20163;-80
2023/10/18 03:59:26;;;;;;;8.63;6.97;;;;;;;-0.69;100.00;99378.25;6078279;23;20504;-82
2023/10/18 04:04:38;;;;;;;8.53;7.07;;;;;;;-0.73;100.00;99366.41;6103529;23;20171;-81
2023/10/18 04:07:17;;;;;;;7.57;6.77;;;;;;;-0.75;100.00;99373.63;6079513;23;20167;-81
2023/10/18 04:09:54;;;;;;;8.00;6.87;;;;;;;-0.78;100.00;99373.94;6103624;23;20171;-83
2023/10/18 04:12:22;;;;;;;9.33;7.43;;;;;;;-0.79;100.00;99361.75;6080236;23;20171;-83
2023/10/18 04:15:19;;;;;;;7.77;6.50;;;;;;;-0.83;100.00;99363.03;6078027;23;20191;-85
2023/10/18 04:17:49;;;;;;;8.87;7.10;;;;;;;-0.84;100.00;99365.84;6106567;23;20175;-83
2023/10/18 04:22:50;;;;;;;8.80;6.83;;;;;;;-0.87;100.00;99374.84;6103080;23;20175;-84
2023/10/18 04:25:26;;;;;;;10.47;7.53;;;;;;;-0.94;100.00;99364.13;6101240;23;20167;-84
2023/10/18 04:27:59;;;;;;;7.93;7.00;;;;;;;-0.92;100.00;99362.16;6079640;23;20450;-83
2023/10/18 04:30:32;;;;;;;8.00;7.20;;;;;;;-0.99;100.00;99360.31;6079320;23;20175;-89
2023/10/18 04:35:45;;;;;;;8.20;7.30;;;;;;;-1.00;100.00;99356.00;6103547;23;20661;-88
2023/10/18 04:38:36;;;;;;;8.43;7.40;;;;;;;-0.98;100.00;99361.97;6103309;23;20690;-89
2023/10/18 04:41:07;;;;;;;8.40;7.20;;;;;;;-0.98;100.00;99362.75;6105925;23;20194;-90
2023/10/18 04:43:36;;;;;;;8.87;7.57;;;;;;;-0.99;100.00;99361.13;6102804;23;20167;-90
2023/10/18 04:54:19;;;;;;;7.73;6.87;;;;;;;-1.06;100.00;99357.44;6105606;23;20179;-89
2023/10/18 04:56:56;;;;;;;8.53;7.37;;;;;;;-1.05;100.00;99361.72;6080999;23;20156;-89
2023/10/18 04:59:29;;;;;;;7.80;6.93;;;;;;;-1.10;100.00;99366.63;6103580;23;20170;-89
2023/10/18 05:01:58;;;;;;;9.23;7.10;;;;;;;-1.14;100.00;99364.44;6079216;23;20680;-89
2023/10/18 05:04:32;;;;;;;9.53;6.70;;;;;;;-1.16;100.00;99361.97;6102104;23;20176;-88
2023/10/18 05:09:44;;;;;;;8.17;6.23;;;;;;;-1.18;100.00;99366.56;6125942;23;20160;-90
2023/10/18 05:17:44;;;;;;;7.03;6.27;;;;;;;-1.25;100.00;99364.66;6102873;23;20175;-88
2023/10/18 05:20:24;;;;;;;9.03;6.23;;;;;;;-1.27;100.00;99367.47;6080935;23;20171;-89
2023/10/18 05:23:04;;;;;;;9.07;6.17;;;;;;;-1.29;100.00;99364.16;6104067;23;20192;-88
2023/10/18 05:25:45;;;;;;;8.10;6.17;;;;;;;-1.28;100.00;99354.47;6103971;23;20205;-88
2023/10/18 05:28:17;;;;;;;7.10;6.40;;;;;;;-1.25;100.00;99364.66;6077891;23;20222;-89
2023/10/18 05:38:52;;;;;;;6.80;5.93;;;;;;;-1.08;100.00;99361.22;6104421;23;20171;-90
2023/10/18 05:43:49;;;;;;;7.57;6.60;;;;;;;-0.94;100.00;99361.50;6101900;23;20670;-89
2023/10/18 05:46:20;;;;;;;9.07;6.33;;;;;;;-0.86;100.00;99358.09;6077949;23;20172;-88
2023/10/18 05:49:13;;;;;;;8.27;6.20;;;;;;;-0.78;100.00;99357.31;6105216;23;20167;-88
2023/10/18 05:54:35;;;;;;;7.23;6.50;;;;;;;-0.63;100.00;99358.41;6105436;23;20172;-89
2023/10/18 05:57:09;;;;;;;7.40;6.10;;;;;;;-0.57;100.00;99358.63;6078512;23;20159;-87
2023/10/18 05:59:37;;;;;;;8.33;6.17;;;;;;;-0.46;100.00;99360.16;6078084;23;20176;-86
2023/10/18 06:02:26;;;;;;;7.80;5.87;;;;;;;-0.36;100.00;99355.59;6081753;23;20215;-89
2023/10/18 06:04:56;;;;;;;7.57;6.77;;;;;;;-0.22;100.00;99360.28;6080238;23;20168;-88
2023/10/18 06:07:29;;;;;;;9.07;7.10;;;;;;;-0.12;100.00;99370.69;6102606;23;20164;-87
2023/10/18 06:10:00;;;;;;;9.70;7.30;;;;;;;0.04;100.00;99362.06;6103510;23;20602;-88
2023/10/18 06:12:38;;;;;;;8.50;7.07;;;;;;;0.16;100.00;99368.66;6102533;23;20172;-88
2023/10/18 06:15:11;;;;;;;10.10;7.20;;;;;;;0.31;100.00;99359.16;6104422;23;20188;-90
2023/10/18 06:17:56;;;;;;;7.73;6.80;;;;;;;0.47;100.00;99356.56;6103064;23;20219;-90
2023/10/18 06:20:30;;;;;;;10.50;6.83;;;;;;;0.67;100.00;99363.19;6081207;23;20258;-89
2023/10/18 06:23:08;;;;;;;8.40;6.73;;;;;;;0.79;100.00;99366.34;6079253;23;20188;-89
2023/10/18 06:25:44;;;;;;;8.50;6.60;;;;;;;0.97;100.00;99361.75;6104029;23;20163;-88
2023/10/18 06:28:20;;;;;;;9.60;8.23;;;;;;;1.12;100.00;99361.91;6081600;23;20155;-89
2023/10/18 06:30:53;;;;;;;10.27;7.50;;;;;;;1.25;100.00;99357.75;6105398;23;20159;-88
2023/10/18 06:33:35;;;;;;;9.63;7.43;;;;;;;1.44;100.00;99355.75;6082461;23;20164;-88
2023/10/18 06:36:13;;;;;;;17.63;14.50;;;;;;;1.63;100.00;99358.81;6080855;23;20171;-81
2023/10/18 06:38:43;;;;;;;18.70;14.53;;;;;;;1.82;100.00;99362.91;6126197;23;20195;-78
2023/10/18 06:41:21;;;;;;;10.60;8.13;;;;;;;2.02;100.00;99366.78;6125537;23;20187;-79
2023/10/18 06:43:54;;;;;;;10.83;7.70;;;;;;;2.18;100.00;99361.47;6126214;23;20167;-78
2023/10/18 06:46:26;;;;;;;10.87;8.03;;;;;;;2.36;100.00;99347.97;6125504;23;20168;-78
2023/10/18 06:48:58;;;;;;;9.93;8.03;;;;;;;2.51;100.00;99351.53;6125874;23;20171;-77
2023/10/18 06:51:45;;;;;;;10.90;9.10;;;;;;;2.62;100.00;99352.94;6126019;23;20168;-77
2023/10/18 06:54:14;;;;;;;10.63;9.30;;;;;;;2.68;100.00;99357.53;6126032;23;20171;-79
2023/10/18 06:56:47;;;;;;;9.63;8.20;;;;;;;2.71;100.00;99364.31;6124686;23;20172;-79
2023/10/18 06:59:15;;;;;;;11.80;9.03;;;;;;;2.76;100.00;99360.09;6126414;23;20163;-78
2023/10/18 07:02:17;;;;;;;9.83;8.83;;;;;;;2.84;100.00;99356.59;6126002;23;20264;-77
2023/10/18 07:04:39;;;;;;;11.90;9.77;;;;;;;2.97;100.00;99356.81;6124971;23;20639;-78
2023/10/18 07:07:13;;;;;;;11.70;9.43;;;;;;;3.13;100.00;99358.53;6125842;23;20164;-77
2023/10/18 07:09:42;;;;;;;11.80;10.40;;;;;;;3.25;100.00;99354.44;6126341;23;20155;-77
2023/10/18 07:12:17;;;;;;;11.47;10.27;;;;;;;3.43;100.00;99357.56;6124717;23;20182;-77
2023/10/18 07:14:52;;;;;;;12.67;10.83;;;;;;;3.59;100.00;99362.72;6125854;23;20187;-77
2023/10/18 07:17:24;;;;;;;11.73;10.53;;;;;;;3.71;100.00;99360.44;6123985;23;20489;-78
2023/10/18 07:19:56;;;;;;;13.40;10.57;;;;;;;3.87;100.00;99354.97;6125493;23;20239;-80
2023/10/18 07:25:27;;;;;;;12.33;10.80;;;;;;;4.24;100.00;99354.84;6113306;23;20686;-81
2023/10/18 07:28:01;;;;;;;12.80;10.93;;;;;;;4.33;100.00;99350.25;6125501;23;20199;-79
2023/10/18 07:30:43;;;;;;;12.50;11.17;;;;;;;4.42;100.00;99352.59;6125450;23;20167;-77
2023/10/18 07:33:15;;;;;;;12.70;10.80;;;;;;;4.51;100.00;99349.81;6125302;23;20174;-80
2023/10/18 07:35:45;;;;;;;11.87;10.50;;;;;;;4.66;100.00;99340.00;6125511;23;20198;-81
2023/10/18 07:38:16;;;;;;;14.27;11.40;;;;;;;4.80;100.00;99336.47;6125263;23;20619;-77
2023/10/18 07:40:55;;;;;;;12.13;10.53;;;;;;;5.04;100.00;99341.34;6125335;23;20156;-78
2023/10/18 07:43:34;;;;;;;12.63;10.97;;;;;;;5.27;100.00;99333.19;6125691;23;20203;-80
2023/10/18 07:46:16;;;;;;;13.60;10.70;;;;;;;5.49;100.00;99328.66;6125409;23;20222;-78
2023/10/18 07:48:47;;;;;;;12.40;10.97;;;;;;;5.69;100.00;99327.75;6125569;23;20638;-77
2023/10/18 07:51:26;;;;;;;13.00;11.80;;;;;;;5.88;100.00;99328.91;6125159;23;20203;-78
2023/10/18 07:54:01;;;;;;;12.97;10.90;;;;;;;6.12;100.00;99324.94;6125470;23;20178;-78
2023/10/18 07:56:31;;;;;;;13.80;10.67;;;;;;;6.34;100.00;99320.31;6125363;23;20178;-77
2023/10/18 08:02:07;;;;;;;13.33;12.03;;;;;;;6.89;100.00;99314.72;6125050;23;20198;-78
2023/10/18 08:04:36;;;;;;;19.27;14.87;;;;;;;7.24;100.00;99309.16;6125428;23;20169;-76
2023/10/18 08:07:10;;;;;;;14.23;12.83;;;;;;;7.82;100.00;99302.94;6125210;23;20188;-78
2023/10/18 08:09:41;;;;;;;13.03;11.93;;;;;;;8.26;100.00;99296.81;6125341;23;20665;-77
2023/10/18 08:12:20;;;;;;;12.27;11.10;;;;;;;8.57;100.00;99312.09;6125120;23;20163;-77
2023/10/18 08:14:50;;;;;;;12.07;10.90;;;;;;;8.82;100.00;99298.75;6125070;23;20191;-76
2023/10/18 08:17:33;;;;;;;11.27;10.30;;;;;;;9.09;100.00;99294.06;6125147;23;20164;-77
2023/10/18 08:22:52;;;;;;;10.40;9.50;;;;;;;9.60;100.00;99283.94;6124965;23;20512;-79
2023/10/18 08:25:23;;;;;;;10.43;9.53;;;;;;;9.95;100.00;99283.31;6124865;23;20509;-76
2023/10/18 08:27:52;;;;;;;10.50;9.60;;;;;;;10.06;100.00;99283.41;6124960;23;20639;-77
2023/10/18 08:30:24;;;;;;;10.80;9.77;;;;;;;10.19;100.00;99281.63;6125046;23;20168;-77
2023/10/18 08:32:54;;;;;;;9.77;8.77;;;;;;;10.33;100.00;99277.72;6124836;23;20218;-77
2023/10/18 08:35:22;;;;;;;9.63;8.83;;;;;;;10.40;100.00;99273.13;6124867;23;20243;-78
2023/10/18 08:37:51;;;;;;;10.47;9.47;;;;;;;10.53;100.00;99275.63;6124690;23;20297;-78
2023/10/18 08:40:36;;;;;;;10.00;9.00;;;;;;;10.54;100.00;99266.53;6124703;23;20250;-78
2023/10/18 08:43:28;;;;;;;10.00;9.10;;;;;;;10.65;100.00;99270.28;6123556;23;20259;-77
2023/10/18 08:45:56;;;;;;;10.33;9.43;;;;;;;10.86;100.00;99278.63;6124562;23;20194;-77
2023/10/18 08:48:28;;;;;;;10.13;9.23;;;;;;;10.85;100.00;99262.75;6124970;23;20182;-77
2023/10/18 08:50:57;;;;;;;10.10;9.07;;;;;;;10.91;100.00;99267.22;6123092;23;20617;-76
2023/10/18 08:53:26;;;;;;;10.27;9.30;;;;;;;10.99;100.00;99272.22;6123500;23;20175;-76
2023/10/18 08:55:59;;;;;;;10.03;9.13;;;;;;;11.02;100.00;99269.91;6125007;23;20158;-76
2023/10/18 08:58:29;;;;;;;10.27;9.27;;;;;;;11.10;100.00;99266.09;6123284;23;20519;-77
2023/10/18 09:03:27;;;;;;;10.03;9.13;;;;;;;11.41;100.00;99264.91;6122911;23;20246;-76
2023/10/18 09:06:07;;;;;;;9.60;8.60;;;;;;;11.61;100.00;99272.63;6124260;23;20258;-76
2023/10/18 09:08:37;;;;;;;9.50;8.60;;;;;;;11.65;100.00;99263.84;6124818;23;20476;-78
2023/10/18 09:11:21;;;;;;;8.57;7.77;;;;;;;11.72;100.00;99259.19;6124603;23;20159;-78
2023/10/18 09:14:09;;;;;;;8.50;7.57;;;;;;;11.85;100.00;99256.25;6123122;23;20168;-77
2023/10/18 09:16:41;;;;;;;8.43;7.63;;;;;;;11.78;100.00;99254.75;6124762;23;20167;-77
2023/10/18 09:19:09;;;;;;;9.63;8.60;;;;;;;11.90;100.00;99248.31;6124461;23;20626;-76
2023/10/18 09:24:14;;;;;;;9.10;8.30;;;;;;;11.98;100.00;99254.38;6102097;23;20175;-83
2023/10/18 09:26:43;;;;;;;8.03;7.33;;;;;;;12.09;100.00;99240.09;6099353;23;20167;-80
2023/10/18 09:29:12;;;;;;;8.93;8.10;;;;;;;12.10;100.00;99247.09;6125557;23;20152;-82
2023/10/18 09:31:54;;;;;;;9.20;8.40;;;;;;;12.08;100.00;99241.16;6100076;23;20645;-83
2023/10/18 09:34:23;;;;;;;9.13;8.00;;;;;;;12.08;100.00;99247.34;6100837;23;20194;-84
2023/10/18 09:36:52;;;;;;;8.80;8.10;;;;;;;12.14;100.00;99251.75;6100373;23;20254;-83
2023/10/18 09:39:24;;;;;;;8.63;7.93;;;;;;;12.24;100.00;99245.75;6077594;23;20175;-83
2023/10/18 09:41:52;;;;;;;8.60;7.80;;;;;;;12.34;100.00;99244.09;6076760;23;20175;-84
2023/10/18 09:44:24;;;;;;;8.90;8.20;;;;;;;12.50;100.00;99239.81;6101148;23;20192;-83
2023/10/18 09:46:54;;;;;;;9.07;8.23;;;;;;;12.54;100.00;99242.84;6100142;23;20218;-84
2023/10/18 09:49:26;;;;;;;8.77;7.90;;;;;;;12.68;100.00;99238.78;6101604;23;20175;-83
2023/10/18 09:51:55;;;;;;;8.50;7.80;;;;;;;12.66;100.00;99230.94;6100324;23;20195;-84
2023/10/18 09:54:25;;;;;;;10.63;8.50;;;;;;;12.69;100.00;99232.34;6100924;23;20172;-82
2023/10/18 09:56:55;;;;;;;8.50;7.90;;;;;;;12.83;100.00;99224.78;6101217;23;20617;-82
2023/10/18 09:59:27;;;;;;;8.30;7.57;;;;;;;12.88;100.00;99235.63;6102432;23;20167;-82
2023/10/18 10:02:02;;;;;;;7.77;7.10;;;;;;;12.86;100.00;99218.91;6102737;23;20164;-84
2023/10/18 10:04:32;;;;;;;8.57;7.30;;;;;;;12.94;100.00;99229.25;6103703;23;20253;-82
2023/10/18 10:09:53;;;;;;;7.40;6.70;;;;;;;13.15;100.00;99215.94;6104587;23;20206;-76
2023/10/18 10:12:27;;;;;;;7.50;6.80;;;;;;;13.26;100.00;99211.50;6125988;23;20168;-78
2023/10/18 10:14:55;;;;;;;7.77;6.47;;;;;;;13.34;100.00;99212.97;6102811;23;20192;-83
2023/10/18 10:17:28;;;;;;;7.87;6.43;;;;;;;13.24;100.00;99205.56;6078615;23;20176;-83
2023/10/18 10:20:15;;;;;;;7.40;6.80;;;;;;;13.29;100.00;99202.13;6104363;23;20195;-84
2023/10/18 10:22:43;;;;;;;7.13;6.53;;;;;;;13.45;100.00;99193.19;6104564;23;20288;-82
2023/10/18 10:25:31;;;;;;;6.97;6.43;;;;;;;13.47;100.00;99191.09;6102129;23;20172;-83
2023/10/18 10:29:08;;;;;;;7.30;6.40;;;;;;;13.65;100.00;99177.31;6088992;23;20175;-80
2023/10/18 10:31:54;;;;;;;7.67;6.70;;;;;;;13.71;100.00;99179.03;6125568;23;20164;-83
2023/10/18 10:34:32;;;;;;;7.10;6.50;;;;;;;13.71;100.00;99180.91;6126095;23;20219;-83
2023/10/18 10:37:09;;;;;;;7.20;6.50;;;;;;;13.89;100.00;99185.97;6103067;23;20543;-82
2023/10/18 10:39:44;;;;;;;6.50;6.00;;;;;;;13.95;100.00;99183.06;6102667;23;20176;-83
2023/10/18 10:42:42;;;;;;;7.40;6.80;;;;;;;13.85;100.00;99176.75;6102779;23;20153;-83
2023/10/18 10:45:38;;;;;;;7.00;6.37;;;;;;;14.03;100.00;99174.56;6104452;23;20192;-83
2023/10/18 10:51:36;;;;;;;7.20;6.50;;;;;;;14.27;100.00;99160.78;6126896;23;20180;-83
2023/10/18 10:54:06;;;;;;;7.17;6.47;;;;;;;14.43;100.00;99154.50;6106327;23;20174;-83
2023/10/18 10:56:43;;;;;;;6.10;5.50;;;;;;;14.56;100.00;99151.38;6125836;23;20153;-83
2023/10/18 10:59:17;;;;;;;6.80;6.20;;;;;;;14.45;100.00;99157.75;6102615;23;20178;-82
2023/10/18 11:04:46;;;;;;;6.47;5.97;;;;;;;14.33;98.74;99155.16;6103284;23;20518;-83
2023/10/18 11:07:25;;;;;;;6.70;6.10;;;;;;;14.33;100.00;99143.56;6102665;23;20177;-83
2023/10/18 11:10:06;;;;;;;6.80;6.23;;;;;;;14.27;98.53;99140.03;6077108;23;20566;-76
2023/10/18 11:12:34;;;;;;;6.70;6.00;;;;;;;14.53;98.80;99136.53;6125289;23;20648;-76
2023/10/18 11:15:04;;;;;;;7.23;6.47;;;;;;;14.52;97.28;99131.38;6126369;23;20193;-76
2023/10/18 11:17:34;;;;;;;6.43;5.87;;;;;;;14.74;96.31;99132.13;6125550;23;20248;-76
2023/10/18 11:20:19;;;;;;;7.13;6.27;;;;;;;14.88;95.61;99124.41;6124198;23;20178;-77
2023/10/18 11:22:47;;;;;;;7.20;6.10;;;;;;;14.72;94.71;99126.16;6125378;23;20264;-76
2023/10/18 11:25:20;;;;;;;8.27;6.37;;;;;;;14.80;94.49;99125.66;6126363;23;20699;-83
2023/10/18 11:27:51;;;;;;;7.63;6.77;;;;;;;14.72;96.85;99119.94;6101564;23;20175;-83
2023/10/18 11:30:28;;;;;;;6.80;6.10;;;;;;;14.74;94.49;99117.81;6124929;23;20166;-83
2023/10/18 11:32:55;;;;;;;6.50;5.97;;;;;;;14.77;94.02;99117.28;6101690;23;20204;-82
2023/10/18 11:35:42;;;;;;;6.60;6.00;;;;;;;14.81;93.68;99113.00;6100003;23;20256;-78
2023/10/18 11:38:11;;;;;;;6.67;6.13;;;;;;;14.82;94.33;99098.47;6125425;23;20151;-76
2023/10/18 11:40:43;;;;;;;6.67;6.07;;;;;;;14.98;93.74;99100.16;6125447;23;20163;-76
2023/10/18 11:43:12;;;;;;;6.70;6.10;;;;;;;14.93;94.18;99095.56;6125574;23;20183;-78
2023/10/18 11:45:45;;;;;;;6.53;6.00;;;;;;;14.70;94.14;99092.44;6125529;23;20165;-77
2023/10/18 11:48:16;;;;;;;7.20;6.60;;;;;;;14.81;93.35;99084.16;6123955;23;20169;-77
2023/10/18 11:50:47;;;;;;;6.50;5.90;;;;;;;14.71;93.54;99089.47;6125657;23;20149;-78
2023/10/18 11:53:22;;;;;;;6.50;6.00;;;;;;;14.77;92.69;99085.75;6125470;23;20162;-77
2023/10/18 11:56:01;;;;;;;8.33;6.07;;;;;;;14.88;92.32;99076.63;6125613;23;20184;-77
2023/10/18 11:58:33;;;;;;;6.50;5.77;;;;;;;14.76;92.74;99073.34;6125194;23;20180;-78
2023/10/18 12:01:17;;;;;;;6.80;6.20;;;;;;;14.76;92.05;99070.63;6125640;23;20171;-82
2023/10/18 12:03:48;;;;;;;7.40;6.70;;;;;;;14.86;92.92;99061.81;6100924;23;20659;-82
2023/10/18 12:06:20;;;;;;;7.27;6.13;;;;;;;14.93;93.95;99057.78;6124787;23;20170;-82
2023/10/18 12:09:09;;;;;;;8.83;6.23;;;;;;;14.85;94.13;99054.78;6101558;23;20174;-82
2023/10/18 12:11:37;;;;;;;7.27;6.67;;;;;;;14.85;93.26;99042.09;6126058;23;20170;-82
2023/10/18 12:14:08;;;;;;;7.10;6.40;;;;;;;14.72;93.17;99047.97;6077066;23;20195;-83
2023/10/18 12:16:42;;;;;;;7.10;6.50;;;;;;;14.63;92.64;99043.31;6125025;23;20585;-82
2023/10/18 12:19:14;;;;;;;6.67;6.10;;;;;;;14.70;93.49;99044.72;6078245;23;20178;-82
2023/10/18 12:21:54;;;;;;;7.33;6.57;;;;;;;14.63;92.57;99036.06;6076344;23;20543;-82
2023/10/18 12:24:27;;;;;;;6.53;5.93;;;;;;;14.56;94.78;99031.97;6102907;23;20192;-82
2023/10/18 12:26:55;;;;;;;6.90;6.30;;;;;;;14.54;93.12;99022.25;6124995;23;20195;-82
2023/10/18 12:29:26;;;;;;;6.77;6.17;;;;;;;14.60;94.31;99033.06;6124640;23;20246;-84
2023/10/18 12:32:08;;;;;;;6.90;6.23;;;;;;;14.61;94.14;99022.00;6101513;23;20170;-83
2023/10/18 12:34:43;;;;;;;7.03;6.30;;;;;;;14.54;93.20;99019.56;6080785;23;20181;-83
2023/10/18 12:37:17;;;;;;;6.87;6.13;;;;;;;14.50;93.73;99009.56;6124932;23;20263;-83
2023/10/18 12:39:48;;;;;;;7.00;6.30;;;;;;;14.87;93.50;99006.78;6124797;23;20170;-83
2023/10/18 12:42:25;;;;;;;6.80;6.10;;;;;;;14.93;92.57;99006.53;6124456;23;20420;-82
2023/10/18 12:44:55;;;;;;;7.43;6.60;;;;;;;14.84;93.17;98989.25;6102332;23;20213;-82
2023/10/18 12:47:23;;;;;;;7.47;6.73;;;;;;;14.81;93.50;98986.25;6077151;23;20261;-82
2023/10/18 12:49:51;;;;;;;7.10;6.30;;;;;;;15.06;92.41;98989.09;6076924;23;20265;-82
2023/10/18 12:55:32;;;;;;;7.40;6.30;;;;;;;15.28;92.66;98986.19;6103530;23;20175;-82
2023/10/18 12:57:58;;;;;;;8.03;7.33;;;;;;;15.18;93.77;98983.44;6123919;23;20175;-83
2023/10/18 13:00:43;;;;;;;8.50;6.90;;;;;;;15.05;94.75;98981.25;6078736;23;20212;-82
2023/10/18 13:05:45;;;;;;;8.00;7.30;;;;;;;14.90;95.96;98976.59;6100336;23;20206;-82
2023/10/18 13:08:16;;;;;;;7.80;7.10;;;;;;;14.83;96.10;98974.16;6077879;23;20194;-83
2023/10/18 13:10:59;;;;;;;8.03;7.33;;;;;;;15.03;96.51;98973.41;6124220;23;20175;-82
2023/10/18 13:13:30;;;;;;;8.30;7.50;;;;;;;14.91;96.53;98967.44;6099958;23;20171;-83